createdAt,value
2017-12-02T00:00:33.521Z,15.48
2017-12-02T00:03:00.078Z,17.15
2017-12-02T00:05:26.690Z,18.60
2017-12-02T00:07:53.237Z,19.23
2017-12-02T00:10:19.777Z,18.15
2017-12-02T00:12:46.457Z,16.65
2017-12-02T00:15:13.050Z,19.52
2017-12-02T00:17:39.610Z,18.83
2017-12-02T00:20:06.677Z,18.50
2017-12-02T00:22:33.689Z,19.52
2017-12-02T00:25:00.306Z,21.98
2017-12-02T00:27:26.999Z,19.37
2017-12-02T00:29:53.614Z,18.90
2017-12-02T00:32:20.170Z,18.92
2017-12-02T00:34:46.784Z,20.60
2017-12-02T00:37:13.374Z,21.70
2017-12-02T00:39:40.018Z,20.33
2017-12-02T00:42:06.738Z,21.12
2017-12-02T00:44:33.374Z,19.45
2017-12-02T00:47:00.306Z,20.33
2017-12-02T00:49:27.015Z,19.65
2017-12-02T00:51:53.551Z,18.62
2017-12-02T00:54:20.093Z,18.23
2017-12-02T00:56:46.686Z,22.30
2017-12-02T00:59:13.230Z,20.33
2017-12-02T01:01:39.774Z,20.08
2017-12-02T01:04:06.370Z,24.30
2017-12-02T01:06:32.935Z,20.37
2017-12-02T01:08:59.493Z,22.13
2017-12-02T01:11:26.129Z,22.15
2017-12-02T01:13:52.710Z,20.75
2017-12-02T01:16:19.313Z,20.77
2017-12-02T01:18:45.970Z,21.05
2017-12-02T01:21:12.562Z,20.98
2017-12-02T01:23:39.102Z,19.73
2017-12-02T01:26:05.677Z,20.73
2017-12-02T01:28:32.229Z,20.48
2017-12-02T01:30:58.773Z,19.15
2017-12-02T01:33:25.389Z,19.50
2017-12-02T01:35:51.934Z,20.02
2017-12-02T01:38:18.497Z,20.52
2017-12-02T01:40:45.505Z,20.73
2017-12-02T01:43:12.042Z,22.13
2017-12-02T01:45:38.982Z,19.90
2017-12-02T01:48:05.943Z,20.73
2017-12-02T01:50:32.874Z,20.73
2017-12-02T01:52:59.425Z,19.10
2017-12-02T01:55:26.161Z,19.80
2017-12-02T01:57:52.709Z,19.95
2017-12-02T02:00:19.289Z,18.30
2017-12-02T02:02:46.294Z,20.92
2017-12-02T02:05:12.841Z,19.20
2017-12-02T02:07:39.382Z,20.80
2017-12-02T02:10:06.051Z,20.75
2017-12-02T02:12:32.578Z,20.27
2017-12-02T02:14:59.106Z,19.33
2017-12-02T02:17:25.776Z,20.58
2017-12-02T02:19:52.301Z,22.62
2017-12-02T02:22:18.838Z,20.02
2017-12-02T02:24:45.833Z,20.23
2017-12-02T02:27:12.381Z,20.80
2017-12-02T02:29:38.948Z,20.70
2017-12-02T02:32:05.550Z,20.55
2017-12-02T02:34:32.095Z,19.25
2017-12-02T02:36:58.642Z,19.87
2017-12-02T02:39:25.262Z,21.30
2017-12-02T02:41:51.814Z,20.37
2017-12-02T02:44:18.802Z,21.30
2017-12-02T02:46:45.395Z,20.65
2017-12-02T02:49:11.944Z,18.55
2017-12-02T02:51:38.637Z,20.30
2017-12-02T02:54:05.338Z,20.30
2017-12-02T02:56:31.882Z,20.85
2017-12-02T02:58:58.434Z,20.67
2017-12-02T03:01:25.054Z,19.45
2017-12-02T03:03:51.594Z,19.62
2017-12-02T03:06:18.130Z,18.00
2017-12-02T03:08:44.721Z,18.77
2017-12-02T03:11:11.345Z,17.12
2017-12-02T03:13:37.966Z,17.80
2017-12-02T03:16:04.650Z,16.08
2017-12-02T03:18:31.261Z,16.70
2017-12-02T03:20:58.237Z,15.65
2017-12-02T03:23:24.881Z,16.52
2017-12-02T03:25:51.461Z,16.02
2017-12-02T03:28:18.066Z,14.45
2017-12-02T03:30:45.115Z,12.95
2017-12-02T03:33:12.101Z,14.18
2017-12-02T03:35:38.718Z,14.25
2017-12-02T03:38:05.742Z,13.65
2017-12-02T03:40:32.382Z,14.73
2017-12-02T03:42:59.117Z,15.13
2017-12-02T03:45:25.805Z,15.65
2017-12-02T03:47:52.423Z,15.20
2017-12-02T03:50:19.041Z,15.85
2017-12-02T03:52:45.785Z,15.70
2017-12-02T03:55:12.819Z,13.75
2017-12-02T03:57:39.409Z,12.30
2017-12-02T04:00:06.106Z,12.52
2017-12-02T04:02:32.702Z,14.32
2017-12-02T04:04:59.317Z,13.48
2017-12-02T04:07:25.970Z,14.00
2017-12-02T04:09:52.625Z,15.02
2017-12-02T04:12:19.602Z,15.27
2017-12-02T04:14:46.271Z,14.10
2017-12-02T04:17:13.109Z,15.70
2017-12-02T04:19:39.735Z,15.35
2017-12-02T04:22:06.381Z,14.10
2017-12-02T04:24:33.368Z,16.55
2017-12-02T04:27:00.040Z,16.20
2017-12-02T04:29:26.774Z,16.67
2017-12-02T04:31:53.426Z,16.80
2017-12-02T04:34:20.038Z,16.20
2017-12-02T04:36:46.702Z,17.27
2017-12-02T04:39:13.686Z,14.77
2017-12-02T04:41:40.317Z,15.18
2017-12-02T04:44:06.945Z,15.95
2017-12-02T04:46:33.950Z,16.02
2017-12-02T04:49:00.573Z,15.43
2017-12-02T04:51:27.593Z,14.73
2017-12-02T04:53:54.198Z,15.02
2017-12-02T04:56:20.838Z,12.73
2017-12-02T04:58:47.494Z,14.38
2017-12-02T05:01:14.110Z,15.40
2017-12-02T05:03:41.090Z,14.90
2017-12-02T05:06:07.762Z,14.85
2017-12-02T05:08:34.374Z,16.20
2017-12-02T05:11:01.349Z,15.13
2017-12-02T05:13:28.481Z,14.20
2017-12-02T05:15:55.481Z,14.18
2017-12-02T05:18:22.065Z,15.43
2017-12-02T05:20:48.739Z,15.40
2017-12-02T05:23:15.706Z,16.90
2017-12-02T05:25:42.305Z,12.48
2017-12-02T05:28:08.970Z,17.27
2017-12-02T05:30:35.593Z,14.40
2017-12-02T05:33:02.239Z,15.45
2017-12-02T05:35:28.937Z,14.35
2017-12-02T05:37:55.922Z,13.73
2017-12-02T05:40:22.530Z,13.30
2017-12-02T05:42:49.308Z,14.52
2017-12-02T05:45:16.325Z,15.13
2017-12-02T05:47:42.941Z,14.68
2017-12-02T05:50:09.622Z,14.95
2017-12-02T05:52:36.178Z,14.93
2017-12-02T05:55:02.789Z,14.93
2017-12-02T05:57:29.551Z,14.70
2017-12-02T05:59:56.178Z,14.07
2017-12-02T06:02:22.763Z,13.65
2017-12-02T06:04:49.482Z,14.85
2017-12-02T06:07:16.093Z,14.73
2017-12-02T06:09:42.718Z,15.52
2017-12-02T06:12:09.433Z,16.33
2017-12-02T06:14:36.045Z,13.82
2017-12-02T06:17:02.683Z,14.15
2017-12-02T06:19:29.369Z,13.60
2017-12-02T06:21:55.986Z,14.32
2017-12-02T06:24:22.980Z,16.12
2017-12-02T06:26:49.658Z,14.65
2017-12-02T06:29:16.290Z,15.70
2017-12-02T06:31:42.914Z,15.65
2017-12-02T06:34:09.605Z,12.60
2017-12-02T06:36:36.237Z,14.75
2017-12-02T06:39:02.923Z,16.08
2017-12-02T06:41:29.606Z,15.23
2017-12-02T06:43:56.362Z,36.33
2017-12-02T06:46:23.472Z,17.05
2017-12-02T06:48:50.168Z,17.12
2017-12-02T06:51:17.228Z,13.50
2017-12-02T06:53:43.874Z,15.52
2017-12-02T06:56:10.930Z,14.80
2017-12-02T06:58:37.937Z,15.32
2017-12-02T07:01:04.619Z,16.95
2017-12-02T07:03:31.366Z,15.13
2017-12-02T07:05:58.066Z,14.45
2017-12-02T07:08:24.756Z,15.80
2017-12-02T07:10:51.505Z,14.13
2017-12-02T07:13:18.158Z,17.10
2017-12-02T07:15:44.846Z,15.57
2017-12-02T07:18:11.930Z,16.80
2017-12-02T07:20:38.605Z,14.43
2017-12-02T07:23:05.231Z,16.20
2017-12-02T07:25:31.986Z,15.77
2017-12-02T07:27:58.651Z,16.60
2017-12-02T07:30:25.273Z,15.95
2017-12-02T07:32:52.061Z,14.98
2017-12-02T07:35:18.681Z,15.30
2017-12-02T07:37:45.379Z,18.92
2017-12-02T07:40:12.075Z,16.83
2017-12-02T07:42:38.711Z,16.90
2017-12-02T07:45:05.763Z,15.43
2017-12-02T07:47:33.421Z,20.67
2017-12-02T07:50:00.043Z,18.65
2017-12-02T07:52:26.678Z,17.98
2017-12-02T07:54:53.346Z,19.45
2017-12-02T07:57:19.954Z,16.65
2017-12-02T07:59:46.604Z,18.52
2017-12-02T08:02:13.242Z,19.62
2017-12-02T08:04:39.902Z,17.08
2017-12-02T08:07:06.517Z,79.78
2017-12-02T08:09:33.205Z,26.30
2017-12-02T08:11:59.814Z,20.98
2017-12-02T08:14:26.421Z,20.70
2017-12-02T08:16:53.187Z,19.40
2017-12-02T08:19:19.795Z,19.20
2017-12-02T08:21:46.394Z,18.50
2017-12-02T08:24:13.063Z,19.33
2017-12-02T08:26:39.665Z,16.60
2017-12-02T08:29:06.282Z,21.37
2017-12-02T08:31:32.931Z,19.17
2017-12-02T08:33:59.531Z,18.60
2017-12-02T08:36:26.163Z,18.98
2017-12-02T08:38:52.919Z,22.10
2017-12-02T08:41:19.550Z,18.10
2017-12-02T08:43:46.162Z,18.62
2017-12-02T08:46:13.238Z,19.50
2017-12-02T08:48:40.225Z,20.35
2017-12-02T08:51:06.819Z,19.40
2017-12-02T08:53:33.506Z,18.87
2017-12-02T08:56:00.126Z,20.52
2017-12-02T08:58:26.738Z,19.20
2017-12-02T09:00:53.435Z,19.15
2017-12-02T09:03:20.450Z,18.60
2017-12-02T09:05:47.158Z,19.77
2017-12-02T09:08:13.818Z,19.08
2017-12-02T09:10:40.426Z,20.12
2017-12-02T09:13:07.042Z,17.15
2017-12-02T09:15:33.707Z,19.10
2017-12-02T09:18:00.330Z,19.55
2017-12-02T09:20:26.978Z,20.67
2017-12-02T09:22:53.654Z,20.15
2017-12-02T09:25:20.269Z,20.10
2017-12-02T09:27:46.881Z,18.75
2017-12-02T09:30:14.103Z,18.27
2017-12-02T09:32:40.763Z,17.10
2017-12-02T09:35:07.402Z,19.10
2017-12-02T09:37:34.514Z,16.30
2017-12-02T09:40:01.498Z,16.35
2017-12-02T09:42:28.116Z,16.30
2017-12-02T09:44:55.126Z,16.05
2017-12-02T09:47:21.846Z,16.67
2017-12-02T09:49:48.524Z,15.10
2017-12-02T09:52:15.224Z,14.07
2017-12-02T09:54:42.218Z,14.50
2017-12-02T09:57:08.847Z,16.98
2017-12-02T09:59:35.607Z,14.63
2017-12-02T10:02:02.202Z,15.00
2017-12-02T10:04:28.834Z,14.38
2017-12-02T10:06:55.518Z,13.88
2017-12-02T10:09:22.487Z,15.07
2017-12-02T10:11:49.115Z,13.00
2017-12-02T10:14:15.790Z,13.93
2017-12-02T10:16:42.747Z,13.50
2017-12-02T10:19:09.354Z,13.77
2017-12-02T10:21:36.160Z,14.48
2017-12-02T10:24:02.778Z,12.30
2017-12-02T10:26:29.774Z,13.62
2017-12-02T10:28:56.463Z,13.80
2017-12-02T10:31:23.119Z,12.90
2017-12-02T10:33:49.793Z,12.77
2017-12-02T10:36:16.846Z,13.75
2017-12-02T10:38:43.831Z,14.10
2017-12-02T10:41:10.426Z,13.85
2017-12-02T10:43:37.518Z,14.57
2017-12-02T10:46:04.594Z,15.00
2017-12-02T10:48:31.222Z,14.07
2017-12-02T10:50:58.270Z,13.90
2017-12-02T10:53:24.878Z,14.40
2017-12-02T10:55:52.071Z,14.82
2017-12-02T10:58:19.037Z,14.82
2017-12-02T11:00:45.717Z,14.38
2017-12-02T11:03:12.298Z,15.10
2017-12-02T11:05:38.990Z,17.58
2017-12-02T11:08:05.831Z,16.83
2017-12-02T11:10:32.439Z,15.73
2017-12-02T11:12:59.174Z,17.02
2017-12-02T11:15:25.807Z,14.52
2017-12-02T11:17:52.763Z,15.77
2017-12-02T11:20:19.382Z,14.95
2017-12-02T11:22:45.969Z,15.20
2017-12-02T11:25:12.562Z,16.70
2017-12-02T11:27:39.273Z,17.42
2017-12-02T11:30:05.838Z,16.40
2017-12-02T11:32:32.400Z,15.73
2017-12-02T11:34:59.423Z,18.02
2017-12-02T11:37:26.109Z,16.55
2017-12-02T11:39:52.730Z,15.63
2017-12-02T11:42:19.721Z,17.02
2017-12-02T11:44:46.309Z,16.35
2017-12-02T11:47:13.271Z,15.15
2017-12-02T11:49:40.327Z,15.05
2017-12-02T11:52:07.256Z,16.00
2017-12-02T11:54:33.794Z,14.50
2017-12-02T11:57:00.388Z,13.98
2017-12-02T11:59:27.286Z,15.13
2017-12-02T12:01:53.874Z,13.60
2017-12-02T12:04:20.841Z,14.05
2017-12-02T12:06:47.789Z,12.90
2017-12-02T12:09:14.707Z,11.98
2017-12-02T12:11:41.362Z,12.45
2017-12-02T12:14:07.953Z,12.43
2017-12-02T12:16:34.905Z,11.38
2017-12-02T12:19:01.936Z,11.75
2017-12-02T12:21:28.534Z,11.40
2017-12-02T12:23:55.065Z,11.30
2017-12-02T12:26:22.161Z,10.70
2017-12-02T12:28:48.709Z,11.27
2017-12-02T12:31:15.256Z,9.75
2017-12-02T12:33:41.898Z,10.52
2017-12-02T12:36:08.441Z,11.07
2017-12-02T12:38:35.033Z,10.95
2017-12-02T12:41:01.741Z,10.43
2017-12-02T12:43:28.289Z,12.23
2017-12-02T12:45:54.878Z,9.35
2017-12-02T12:48:21.633Z,10.93
2017-12-02T12:50:48.282Z,10.80
2017-12-02T12:53:14.834Z,10.30
2017-12-02T12:55:41.438Z,10.40
2017-12-02T12:58:07.973Z,10.27
2017-12-02T13:00:34.590Z,9.93
2017-12-02T13:03:01.646Z,9.90
2017-12-02T13:05:28.571Z,9.73
2017-12-02T13:07:55.114Z,8.75
2017-12-02T13:10:21.731Z,10.43
2017-12-02T13:12:48.282Z,10.20
2017-12-02T13:15:14.822Z,9.95
2017-12-02T13:17:41.454Z,13.05
2017-12-02T13:20:07.978Z,10.75
2017-12-02T13:22:34.526Z,10.80
2017-12-02T13:25:01.168Z,11.52
2017-12-02T13:27:28.221Z,10.52
2017-12-02T13:29:54.762Z,10.40
2017-12-02T13:32:21.361Z,10.00
2017-12-02T13:34:47.918Z,9.43
2017-12-02T13:37:14.449Z,10.45
2017-12-02T13:39:41.060Z,9.07
2017-12-02T13:42:07.621Z,8.13
2017-12-02T13:44:34.376Z,8.50
2017-12-02T13:47:01.218Z,9.50
2017-12-02T13:49:28.507Z,8.55
2017-12-02T13:51:55.477Z,6.90
2017-12-02T13:54:22.134Z,7.55
2017-12-02T13:56:48.684Z,8.23
2017-12-02T13:59:15.237Z,8.15
2017-12-02T14:01:41.818Z,7.97
2017-12-02T14:04:08.371Z,9.10
2017-12-02T14:06:34.930Z,9.65
2017-12-02T14:09:01.533Z,9.15
2017-12-02T14:11:28.508Z,8.80
2017-12-02T14:13:55.058Z,8.90
2017-12-02T14:16:21.665Z,8.93
2017-12-02T14:18:48.235Z,8.73
2017-12-02T14:21:14.771Z,7.60
2017-12-02T14:23:41.358Z,7.70
2017-12-02T14:26:08.242Z,8.25
2017-12-02T14:28:34.810Z,7.75
2017-12-02T14:31:01.442Z,8.20
2017-12-02T14:33:28.365Z,8.00
2017-12-02T14:35:54.911Z,8.13
2017-12-02T14:38:21.509Z,8.45
2017-12-02T14:40:48.051Z,10.00
2017-12-02T14:43:14.601Z,8.95
2017-12-02T14:45:41.214Z,8.05
2017-12-02T14:48:07.799Z,8.90
2017-12-02T14:50:34.341Z,9.15
2017-12-02T14:53:01.041Z,13.50
2017-12-02T14:55:27.938Z,13.45
2017-12-02T14:57:54.862Z,10.60
2017-12-02T15:00:21.498Z,9.23
2017-12-02T15:02:48.101Z,9.75
2017-12-02T15:05:14.638Z,8.93
2017-12-02T15:07:41.588Z,8.30
2017-12-02T15:10:08.498Z,9.80
2017-12-02T15:12:35.046Z,8.90
2017-12-02T15:15:01.707Z,10.77
2017-12-02T15:17:28.430Z,9.43
2017-12-02T15:19:55.005Z,10.00
2017-12-02T15:22:21.609Z,10.00
2017-12-02T15:24:48.198Z,9.73
2017-12-02T15:27:14.761Z,9.82
2017-12-02T15:29:41.349Z,10.35
2017-12-02T15:32:07.914Z,10.27
2017-12-02T15:34:34.477Z,10.82
2017-12-02T15:37:01.109Z,11.35
2017-12-02T15:39:28.246Z,13.05
2017-12-02T15:42:02.326Z,10.30
2017-12-02T15:44:28.930Z,9.82
2017-12-02T15:46:55.474Z,10.00
2017-12-02T15:49:22.141Z,10.20
2017-12-02T15:51:48.755Z,11.48
2017-12-02T15:54:15.754Z,10.10
2017-12-02T15:56:42.470Z,10.88
2017-12-02T15:59:09.038Z,11.70
2017-12-02T16:01:35.634Z,11.18
2017-12-02T16:04:02.294Z,11.52
2017-12-02T16:06:28.865Z,12.77
2017-12-02T16:08:55.810Z,11.25
2017-12-02T16:11:22.449Z,11.45
2017-12-02T16:13:49.010Z,9.75
2017-12-02T16:16:16.002Z,11.02
2017-12-02T16:18:42.661Z,8.57
2017-12-02T16:21:09.219Z,8.30
2017-12-02T16:23:35.811Z,8.00
2017-12-02T16:26:17.693Z,8.43
2017-12-02T16:28:44.293Z,9.50
2017-12-02T16:31:10.858Z,9.73
2017-12-02T16:33:37.510Z,8.02
2017-12-02T16:36:04.078Z,8.48
2017-12-02T16:38:30.641Z,8.10
2017-12-02T16:40:57.302Z,7.30
2017-12-02T16:43:24.366Z,8.82
2017-12-02T16:45:51.373Z,8.88
2017-12-02T16:48:18.077Z,8.07
2017-12-02T16:50:45.083Z,9.63
2017-12-02T16:53:11.674Z,12.02
2017-12-02T16:55:38.713Z,9.20
2017-12-02T16:58:05.310Z,11.23
2017-12-02T17:00:31.955Z,11.60
2017-12-02T17:02:58.647Z,11.00
2017-12-02T17:05:25.245Z,10.80
2017-12-02T17:07:51.802Z,10.00
2017-12-02T17:10:18.435Z,10.80
2017-12-02T17:12:45.375Z,12.85
2017-12-02T17:15:11.922Z,10.50
2017-12-02T17:17:38.924Z,11.95
2017-12-02T17:20:05.526Z,12.27
2017-12-02T17:22:32.164Z,13.40
2017-12-02T17:24:58.842Z,11.25
2017-12-02T17:27:25.883Z,12.35
2017-12-02T17:29:52.869Z,10.82
2017-12-02T17:32:19.501Z,10.90
2017-12-02T17:34:46.454Z,9.52
2017-12-02T17:37:13.442Z,10.27
2017-12-02T17:39:40.075Z,9.43
2017-12-02T17:42:07.090Z,11.40
2017-12-02T17:44:33.693Z,10.38
2017-12-02T17:47:00.386Z,10.65
2017-12-02T17:49:27.011Z,12.05
2017-12-02T17:51:53.566Z,12.18
2017-12-02T17:54:20.187Z,12.30
2017-12-02T17:56:46.746Z,11.45
2017-12-02T17:59:13.286Z,11.43
2017-12-02T18:01:39.985Z,11.82
2017-12-02T18:04:06.526Z,11.93
2017-12-02T18:06:33.180Z,11.75
2017-12-02T18:08:59.769Z,10.57
2017-12-02T18:11:26.313Z,9.60
2017-12-02T18:13:52.858Z,9.60
2017-12-02T18:16:19.474Z,9.77
2017-12-02T18:18:46.026Z,9.48
2017-12-02T18:21:12.594Z,9.85
2017-12-02T18:23:39.582Z,10.75
2017-12-02T18:26:06.140Z,10.57
2017-12-02T18:28:32.697Z,11.30
2017-12-02T18:30:59.381Z,11.05
2017-12-02T18:33:25.994Z,11.07
2017-12-02T18:35:52.557Z,11.05
2017-12-02T18:38:19.178Z,10.60
2017-12-02T18:40:45.729Z,10.95
2017-12-02T18:43:12.287Z,9.73
2017-12-02T18:45:38.888Z,9.50
2017-12-02T18:48:05.854Z,9.68
2017-12-02T18:50:32.482Z,9.93
2017-12-02T18:52:59.509Z,10.90
2017-12-02T18:55:26.066Z,10.77
2017-12-02T18:57:52.621Z,8.95
2017-12-02T19:00:19.255Z,8.27
2017-12-02T19:02:45.835Z,7.50
2017-12-02T19:05:12.751Z,8.02
2017-12-02T19:07:39.359Z,7.75
2017-12-02T19:10:05.909Z,6.95
2017-12-02T19:12:32.446Z,9.68
2017-12-02T19:14:59.058Z,10.27
2017-12-02T19:17:25.602Z,11.70
2017-12-02T19:19:52.176Z,10.50
2017-12-02T19:22:19.138Z,8.45
2017-12-02T19:24:46.066Z,8.70
2017-12-02T19:27:12.617Z,9.50
2017-12-02T19:29:39.314Z,10.13
2017-12-02T19:32:05.866Z,10.20
2017-12-02T19:34:32.470Z,9.98
2017-12-02T19:36:59.503Z,8.95
2017-12-02T19:39:26.098Z,8.55
2017-12-02T19:41:52.657Z,9.05
2017-12-02T19:44:19.273Z,9.68
2017-12-02T19:46:46.254Z,8.60
2017-12-02T19:49:12.887Z,8.82
2017-12-02T19:51:39.906Z,8.98
2017-12-02T19:54:06.450Z,9.90
2017-12-02T19:56:33.334Z,8.73
2017-12-02T19:59:00.525Z,8.13
2017-12-02T20:01:27.509Z,8.55
2017-12-02T20:03:54.095Z,7.95
2017-12-02T20:06:21.494Z,6.85
2017-12-02T20:08:48.074Z,7.18
2017-12-02T20:11:14.672Z,7.85
2017-12-02T20:13:41.714Z,8.02
2017-12-02T20:16:08.301Z,8.10
2017-12-02T20:18:35.393Z,8.50
2017-12-02T20:21:02.727Z,8.48
2017-12-02T20:23:29.327Z,9.20
2017-12-02T20:25:55.885Z,9.68
2017-12-02T20:28:22.493Z,8.27
2017-12-02T20:30:52.627Z,8.27
2017-12-02T20:33:20.904Z,7.18
2017-12-02T20:35:48.870Z,8.20
2017-12-02T20:38:15.450Z,9.00
2017-12-02T20:40:42.073Z,8.35
2017-12-02T20:43:09.646Z,7.45
2017-12-02T20:45:36.234Z,8.35
2017-12-02T20:48:02.787Z,9.35
2017-12-02T20:50:29.505Z,8.98
2017-12-02T20:52:57.504Z,10.25
2017-12-02T20:55:24.058Z,8.68
2017-12-02T20:57:51.750Z,10.32
2017-12-02T21:00:18.289Z,10.85
2017-12-02T21:02:46.680Z,10.00
2017-12-02T21:05:13.333Z,8.40
2017-12-02T21:07:41.354Z,9.68
2017-12-02T21:10:07.905Z,8.68
2017-12-02T21:12:34.511Z,8.02
2017-12-02T21:15:02.399Z,8.80
2017-12-02T21:17:28.946Z,9.45
2017-12-02T21:19:55.676Z,8.35
2017-12-02T21:22:22.282Z,8.82
2017-12-02T21:24:48.988Z,8.35
2017-12-02T21:27:15.618Z,9.57
2017-12-02T21:29:42.941Z,9.95
2017-12-02T21:32:09.822Z,10.30
2017-12-02T21:34:36.998Z,10.20
2017-12-02T21:37:03.557Z,9.48
2017-12-02T21:39:30.185Z,10.27
2017-12-02T21:41:56.806Z,10.10
2017-12-02T21:44:23.555Z,8.63
2017-12-02T21:46:51.022Z,8.75
2017-12-02T21:49:18.074Z,8.70
2017-12-02T21:51:44.990Z,10.18
2017-12-02T21:54:11.598Z,8.93
2017-12-02T21:56:38.344Z,8.63
2017-12-02T21:59:04.988Z,8.50
2017-12-02T22:01:31.631Z,11.50
2017-12-02T22:03:58.291Z,9.30
2017-12-02T22:06:24.964Z,10.00
2017-12-02T22:08:51.855Z,9.43
2017-12-02T22:11:18.535Z,9.93
2017-12-02T22:13:45.179Z,9.52
2017-12-02T22:16:11.781Z,9.60
2017-12-02T22:18:38.533Z,8.15
2017-12-02T22:21:05.105Z,7.25
2017-12-02T22:23:31.673Z,7.32
2017-12-02T22:25:58.706Z,8.07
2017-12-02T22:28:25.257Z,8.27
2017-12-02T22:30:51.813Z,9.07
2017-12-02T22:33:18.917Z,8.90
2017-12-02T22:35:45.478Z,9.40
2017-12-02T22:38:12.202Z,7.30
2017-12-02T22:40:38.874Z,7.45
2017-12-02T22:43:12.683Z,9.15
2017-12-02T22:45:39.398Z,9.77
2017-12-02T22:48:06.403Z,9.27
2017-12-02T22:50:33.011Z,9.38
2017-12-02T22:52:59.606Z,11.40
2017-12-02T22:55:26.321Z,12.52
2017-12-02T22:57:54.425Z,12.20
2017-12-02T23:00:21.502Z,12.43
2017-12-02T23:02:48.249Z,13.27
2017-12-02T23:05:14.841Z,12.30
2017-12-02T23:07:41.847Z,11.98
2017-12-02T23:10:08.414Z,11.50
2017-12-02T23:12:35.046Z,12.73
2017-12-02T23:15:01.688Z,11.45
2017-12-02T23:17:28.277Z,11.18
2017-12-02T23:19:55.397Z,13.20
2017-12-02T23:22:22.086Z,11.73
2017-12-02T23:24:48.826Z,11.25
2017-12-02T23:27:15.398Z,9.75
2017-12-02T23:29:42.135Z,11.25
2017-12-02T23:32:08.687Z,11.10
2017-12-02T23:34:35.249Z,12.93
2017-12-02T23:37:01.877Z,13.75
2017-12-02T23:39:28.529Z,12.82
2017-12-02T23:41:55.083Z,12.15
2017-12-02T23:44:21.709Z,14.20
2017-12-02T23:46:48.250Z,14.40
2017-12-02T23:49:14.800Z,12.05
2017-12-02T23:51:41.472Z,13.62
2017-12-02T23:54:08.050Z,14.10
2017-12-02T23:56:34.637Z,12.85
2017-12-02T23:59:01.272Z,11.23
